Time;durP1;ratioP1;P1;durP2;ratioP2;P2;SDS_P1;SDS_P2;PMS_P1;PMS_P2;Temp;Humidity;BMP_temperature;BMP_pressure;BME280_temperature;BME280_humidity;BME280_pressure;Samples;Min_cycle;Max_cycle;Signal;HPM_P1;HPM_P2
2022/03/13 00:02:01;;;;;;;17.60;9.75;;;;;;;;;;5040156;28;20537;-83
2022/03/13 00:04:27;;;;;;;18.52;9.25;;;;;;;;;;5042740;28;20033;-83
2022/03/13 00:06:55;;;;;;;27.30;10.40;;;;;;;;;;5048622;28;20037;-84
2022/03/13 00:09:22;;;;;;;18.50;9.55;;;;;;;;;;5046202;28;20066;-83
2022/03/13 00:11:53;;;;;;;16.77;9.65;;;;;;;;;;5027738;28;20048;-83
2022/03/13 00:14:20;;;;;;;22.20;9.75;;;;;;;;;;5025214;28;20021;-84
2022/03/13 00:16:46;;;;;;;22.95;10.90;;;;;;;;;;5023335;28;20500;-85
2022/03/13 00:19:12;;;;;;;18.15;10.32;;;;;;;;;;5040487;28;20510;-83
2022/03/13 00:21:39;;;;;;;21.25;10.90;;;;;;;;;;5039915;28;20034;-86
2022/03/13 00:24:05;;;;;;;19.00;10.07;;;;;;;;;;5039605;28;20056;-84
2022/03/13 00:26:35;;;;;;;21.40;10.02;;;;;;;;;;5040601;28;20044;-82
2022/03/13 00:29:01;;;;;;;21.92;9.95;;;;;;;;;;5021632;28;20053;-83
2022/03/13 00:31:27;;;;;;;19.92;10.57;;;;;;;;;;5040239;28;20013;-81
2022/03/13 00:33:53;;;;;;;22.83;11.10;;;;;;;;;;5039754;28;20152;-84
2022/03/13 00:36:20;;;;;;;18.80;10.13;;;;;;;;;;5043550;28;20025;-84
2022/03/13 00:38:46;;;;;;;27.02;10.60;;;;;;;;;;5055532;28;20033;-83
2022/03/13 00:41:12;;;;;;;23.55;10.70;;;;;;;;;;5037542;28;20037;-84
2022/03/13 00:43:38;;;;;;;24.15;11.85;;;;;;;;;;5038323;28;20508;-83
2022/03/13 00:46:04;;;;;;;19.30;10.52;;;;;;;;;;5019703;28;20029;-82
2022/03/13 00:48:30;;;;;;;22.40;11.32;;;;;;;;;;5020199;28;20033;-82
2022/03/13 00:50:56;;;;;;;19.27;10.18;;;;;;;;;;5019800;28;20018;-83
2022/03/13 00:53:22;;;;;;;16.52;9.68;;;;;;;;;;5020187;28;20030;-83
2022/03/13 00:55:49;;;;;;;26.30;11.20;;;;;;;;;;5020703;28;20080;-83
2022/03/13 00:58:15;;;;;;;19.73;10.55;;;;;;;;;;5038238;28;20034;-84
2022/03/13 01:00:41;;;;;;;22.08;10.50;;;;;;;;;;5038653;28;20090;-83
2022/03/13 01:03:11;;;;;;;24.05;10.75;;;;;;;;;;5020715;28;20072;-84
2022/03/13 01:05:37;;;;;;;23.25;10.38;;;;;;;;;;5038346;28;20553;-86
2022/03/13 01:08:03;;;;;;;19.83;10.98;;;;;;;;;;5037379;28;20053;-83
2022/03/13 01:10:29;;;;;;;24.88;10.70;;;;;;;;;;5038081;28;20026;-79
2022/03/13 01:12:55;;;;;;;23.00;10.77;;;;;;;;;;5037973;28;20025;-83
2022/03/13 01:15:21;;;;;;;28.63;10.55;;;;;;;;;;5038015;28;20028;-84
2022/03/13 01:17:47;;;;;;;23.27;10.57;;;;;;;;;;5019551;28;20091;-83
2022/03/13 01:20:17;;;;;;;25.08;11.27;;;;;;;;;;5020313;28;20505;-84
2022/03/13 01:22:43;;;;;;;28.77;11.15;;;;;;;;;;5021208;28;20027;-84
2022/03/13 01:25:09;;;;;;;23.65;10.80;;;;;;;;;;5021081;28;20112;-84
2022/03/13 01:27:35;;;;;;;20.70;10.95;;;;;;;;;;5038911;28;20021;-84
2022/03/13 01:30:03;;;;;;;21.20;10.63;;;;;;;;;;5037343;28;20026;-83
2022/03/13 01:32:32;;;;;;;19.65;11.05;;;;;;;;;;5039564;28;20601;-84
2022/03/13 01:34:58;;;;;;;22.25;11.43;;;;;;;;;;5039270;28;20013;-85
2022/03/13 01:37:28;;;;;;;19.65;10.43;;;;;;;;;;5040464;28;20045;-84
2022/03/13 01:39:55;;;;;;;19.98;11.18;;;;;;;;;;5039654;28;20044;-87
2022/03/13 01:42:21;;;;;;;18.85;10.50;;;;;;;;;;5041171;28;20033;-84
2022/03/13 01:44:47;;;;;;;20.08;10.65;;;;;;;;;;5039000;28;20032;-84
2022/03/13 01:47:13;;;;;;;21.70;11.10;;;;;;;;;;5039711;28;20021;-83
2022/03/13 01:49:39;;;;;;;26.25;11.52;;;;;;;;;;5039327;28;20040;-84
2022/03/13 01:52:05;;;;;;;24.77;10.88;;;;;;;;;;5038482;28;20029;-83
2022/03/13 01:54:31;;;;;;;22.20;10.50;;;;;;;;;;5038645;28;20033;-83
2022/03/13 01:57:00;;;;;;;26.08;11.65;;;;;;;;;;5038650;28;20024;-84
2022/03/13 01:59:27;;;;;;;21.90;11.65;;;;;;;;;;5038038;28;20130;-83
2022/03/13 02:01:54;;;;;;;23.83;10.25;;;;;;;;;;5044418;28;20040;-82
2022/03/13 02:04:24;;;;;;;18.63;9.95;;;;;;;;;;5057662;28;20021;-83
2022/03/13 02:06:50;;;;;;;24.50;11.20;;;;;;;;;;5000326;28;20022;-81
2022/03/13 02:09:16;;;;;;;22.85;10.82;;;;;;;;;;5018139;28;20030;-84
2022/03/13 02:11:42;;;;;;;24.55;11.63;;;;;;;;;;5017616;28;20094;-84
2022/03/13 02:14:10;;;;;;;20.00;10.50;;;;;;;;;;5000199;28;20022;-83
2022/03/13 02:16:36;;;;;;;25.08;11.43;;;;;;;;;;5008255;28;20033;-83
2022/03/13 02:19:03;;;;;;;21.38;11.02;;;;;;;;;;5037447;28;20044;-83
2022/03/13 02:21:31;;;;;;;25.48;11.05;;;;;;;;;;5018872;28;20060;-84
2022/03/13 02:24:00;;;;;;;19.10;10.55;;;;;;;;;;5019324;28;20029;-83
2022/03/13 02:26:26;;;;;;;24.38;10.65;;;;;;;;;;5036411;28;20033;-83
2022/03/13 02:28:53;;;;;;;24.05;12.30;;;;;;;;;;5018307;28;20385;-83
2022/03/13 02:31:38;;;;;;;30.48;11.90;;;;;;;;;;5036712;28;20448;-83
2022/03/13 02:34:05;;;;;;;20.58;9.77;;;;;;;;;;5037476;28;20033;-83
2022/03/13 02:36:45;;;;;;;22.88;9.98;;;;;;;;;;5036582;28;20098;-84
2022/03/13 02:39:11;;;;;;;19.17;10.63;;;;;;;;;;5018138;28;20038;-81
2022/03/13 02:41:40;;;;;;;19.25;10.40;;;;;;;;;;5018742;28;20083;-84
2022/03/13 02:44:07;;;;;;;22.10;10.55;;;;;;;;;;5018688;28;20104;-82
2022/03/13 02:46:46;;;;;;;22.70;11.45;;;;;;;;;;5018531;28;20461;-82
2022/03/13 02:49:13;;;;;;;24.17;10.70;;;;;;;;;;5036681;28;20025;-84
2022/03/13 02:51:39;;;;;;;19.58;10.55;;;;;;;;;;5036481;28;20608;-82
2022/03/13 02:54:05;;;;;;;27.05;11.20;;;;;;;;;;5020060;28;20021;-83
2022/03/13 02:56:31;;;;;;;20.63;10.48;;;;;;;;;;5019353;28;20032;-85
2022/03/13 02:58:57;;;;;;;27.83;10.55;;;;;;;;;;5019545;28;20486;-84
2022/03/13 03:01:23;;;;;;;22.05;10.70;;;;;;;;;;5036523;28;20288;-83
2022/03/13 03:03:49;;;;;;;20.40;10.32;;;;;;;;;;5036132;28;20026;-83
2022/03/13 03:06:15;;;;;;;21.80;11.60;;;;;;;;;;5036302;28;20033;-82
2022/03/13 03:08:41;;;;;;;24.45;10.90;;;;;;;;;;5037107;28;20074;-83
2022/03/13 03:11:07;;;;;;;29.80;12.13;;;;;;;;;;5036834;28;20029;-84
2022/03/13 03:13:34;;;;;;;25.75;11.35;;;;;;;;;;5036649;28;20033;-84
2022/03/13 03:16:00;;;;;;;22.33;11.95;;;;;;;;;;5035776;28;20040;-85
2022/03/13 03:18:26;;;;;;;19.98;10.45;;;;;;;;;;5017571;28;20055;-83
2022/03/13 03:20:52;;;;;;;21.58;11.00;;;;;;;;;;5036110;28;20025;-85
2022/03/13 03:23:18;;;;;;;22.63;11.10;;;;;;;;;;5036161;28;20057;-83
2022/03/13 03:25:44;;;;;;;22.20;11.77;;;;;;;;;;5036332;28;20045;-84
2022/03/13 03:28:10;;;;;;;21.10;10.77;;;;;;;;;;5017529;28;20021;-83
2022/03/13 03:30:36;;;;;;;22.63;11.35;;;;;;;;;;5019133;28;20036;-85
2022/03/13 03:33:03;;;;;;;19.73;10.35;;;;;;;;;;5037367;28;20029;-85
2022/03/13 03:35:29;;;;;;;18.52;10.55;;;;;;;;;;5037042;28;20014;-85
2022/03/13 03:37:56;;;;;;;21.63;12.20;;;;;;;;;;5018575;28;20497;-83
2022/03/13 03:40:26;;;;;;;24.77;11.35;;;;;;;;;;5037130;28;20025;-83
2022/03/13 03:42:54;;;;;;;26.67;11.18;;;;;;;;;;5019652;28;20021;-84
2022/03/13 03:45:20;;;;;;;20.52;10.07;;;;;;;;;;5019070;28;20022;-84
2022/03/13 03:47:47;;;;;;;20.98;11.13;;;;;;;;;;5036481;28;20053;-82
2022/03/13 03:50:13;;;;;;;24.48;11.93;;;;;;;;;;5036565;28;20021;-84
2022/03/13 03:52:39;;;;;;;22.15;10.70;;;;;;;;;;5035944;28;20095;-83
2022/03/13 03:55:05;;;;;;;20.13;10.65;;;;;;;;;;5037146;28;20013;-84
2022/03/13 03:57:32;;;;;;;24.35;11.77;;;;;;;;;;5036313;28;20013;-83
2022/03/13 03:59:57;;;;;;;23.75;11.63;;;;;;;;;;5036698;28;20022;-84
2022/03/13 04:02:23;;;;;;;22.27;11.05;;;;;;;;;;5037066;28;20480;-84
2022/03/13 04:04:49;;;;;;;26.27;11.88;;;;;;;;;;5018791;28;20104;-83
2022/03/13 04:07:16;;;;;;;23.88;11.43;;;;;;;;;;5037803;28;20389;-86
2022/03/13 04:09:43;;;;;;;18.05;10.73;;;;;;;;;;5022308;28;20017;-82
2022/03/13 04:12:09;;;;;;;24.27;12.30;;;;;;;;;;5039919;28;20026;-85
2022/03/13 04:14:35;;;;;;;22.92;11.50;;;;;;;;;;5021320;28;20037;-83
2022/03/13 04:17:02;;;;;;;25.85;11.82;;;;;;;;;;5039111;28;20101;-83
2022/03/13 04:19:28;;;;;;;18.35;11.00;;;;;;;;;;5021840;28;20083;-84
2022/03/13 04:21:55;;;;;;;22.83;11.88;;;;;;;;;;5040710;28;20029;-82
2022/03/13 04:24:22;;;;;;;28.33;11.85;;;;;;;;;;5021317;28;20067;-82
2022/03/13 04:26:49;;;;;;;22.40;10.73;;;;;;;;;;5039695;28;20026;-84
2022/03/13 04:29:16;;;;;;;22.15;11.48;;;;;;;;;;5038540;28;20022;-82
2022/03/13 04:31:42;;;;;;;22.40;10.25;;;;;;;;;;5021745;28;20022;-82
2022/03/13 04:34:08;;;;;;;21.13;10.77;;;;;;;;;;5039438;28;20461;-84
2022/03/13 04:36:37;;;;;;;23.05;10.70;;;;;;;;;;5038920;28;20095;-85
2022/03/13 04:39:04;;;;;;;21.80;10.88;;;;;;;;;;5038379;28;20520;-84
2022/03/13 04:41:30;;;;;;;22.20;10.88;;;;;;;;;;5020376;28;20117;-83
2022/03/13 04:43:56;;;;;;;27.10;12.18;;;;;;;;;;5039108;28;20029;-86
2022/03/13 04:46:22;;;;;;;27.23;10.93;;;;;;;;;;5020741;28;20092;-85
2022/03/13 04:48:49;;;;;;;25.20;11.45;;;;;;;;;;5021636;28;20481;-84
2022/03/13 04:51:15;;;;;;;25.92;11.63;;;;;;;;;;5039325;28;20018;-84
2022/03/13 04:53:42;;;;;;;22.48;10.80;;;;;;;;;;5021012;28;20024;-85
2022/03/13 04:56:08;;;;;;;21.95;11.68;;;;;;;;;;5039734;28;20032;-84
2022/03/13 04:58:34;;;;;;;28.00;11.10;;;;;;;;;;5039402;28;20563;-85
2022/03/13 05:01:00;;;;;;;23.23;10.65;;;;;;;;;;5038924;28;20018;-85
2022/03/13 05:03:27;;;;;;;30.40;11.65;;;;;;;;;;5039557;28;20029;-83
2022/03/13 05:05:53;;;;;;;21.27;10.93;;;;;;;;;;5039994;28;20037;-82
2022/03/13 05:08:19;;;;;;;23.33;11.70;;;;;;;;;;5019680;28;20021;-83
2022/03/13 05:10:46;;;;;;;25.67;11.75;;;;;;;;;;5021552;28;20021;-83
2022/03/13 05:13:13;;;;;;;24.80;10.88;;;;;;;;;;5020888;28;20032;-83
2022/03/13 05:15:39;;;;;;;21.15;10.55;;;;;;;;;;5039380;28;20021;-82
2022/03/13 05:18:06;;;;;;;22.65;11.50;;;;;;;;;;5037514;28;20112;-84
2022/03/13 05:20:34;;;;;;;20.95;11.52;;;;;;;;;;5038862;28;20101;-83
2022/03/13 05:23:00;;;;;;;20.92;10.32;;;;;;;;;;5038629;28;20109;-85
2022/03/13 05:25:30;;;;;;;22.38;10.35;;;;;;;;;;5038591;28;20041;-84
2022/03/13 05:27:57;;;;;;;24.73;11.30;;;;;;;;;;5041665;28;20036;-83
2022/03/13 05:30:24;;;;;;;24.13;10.55;;;;;;;;;;5038427;28;20543;-83
2022/03/13 05:32:50;;;;;;;30.70;11.80;;;;;;;;;;5039232;28;20385;-83
2022/03/13 05:35:16;;;;;;;20.45;11.20;;;;;;;;;;5038783;28;20032;-83
2022/03/13 05:37:43;;;;;;;23.65;10.65;;;;;;;;;;5037957;28;20049;-85
2022/03/13 05:40:13;;;;;;;24.52;10.80;;;;;;;;;;5020312;28;20025;-84
2022/03/13 05:42:39;;;;;;;17.52;10.27;;;;;;;;;;5020128;28;20117;-82
2022/03/13 05:45:05;;;;;;;21.75;11.02;;;;;;;;;;5037921;28;20026;-83
2022/03/13 05:47:31;;;;;;;21.80;11.40;;;;;;;;;;5019551;28;20029;-84
2022/03/13 05:50:00;;;;;;;21.00;10.65;;;;;;;;;;5037643;28;20036;-82
2022/03/13 05:52:26;;;;;;;24.42;11.27;;;;;;;;;;5038215;28;20033;-84
2022/03/13 05:54:52;;;;;;;19.77;9.80;;;;;;;;;;5037914;28;20036;-82
2022/03/13 05:57:18;;;;;;;24.30;10.25;;;;;;;;;;5037124;28;20025;-83
2022/03/13 05:59:44;;;;;;;22.38;10.73;;;;;;;;;;5038879;28;20037;-84
2022/03/13 06:02:10;;;;;;;22.98;10.48;;;;;;;;;;5037532;28;20089;-84
2022/03/13 06:04:36;;;;;;;19.45;10.13;;;;;;;;;;5021137;28;20052;-85
2022/03/13 06:07:03;;;;;;;20.80;10.18;;;;;;;;;;5022189;28;20029;-84
2022/03/13 06:09:29;;;;;;;24.88;9.77;;;;;;;;;;5022106;28;20493;-83
2022/03/13 06:11:55;;;;;;;22.73;10.93;;;;;;;;;;5039094;28;20055;-83
2022/03/13 06:14:22;;;;;;;20.60;10.40;;;;;;;;;;5021460;28;20163;-82
2022/03/13 06:16:48;;;;;;;24.45;10.65;;;;;;;;;;5039547;28;20017;-85
2022/03/13 06:19:14;;;;;;;21.20;11.15;;;;;;;;;;5020837;28;20053;-85
2022/03/13 06:21:48;;;;;;;21.02;10.95;;;;;;;;;;5019242;28;20029;-84
2022/03/13 06:24:18;;;;;;;20.15;10.52;;;;;;;;;;5020602;28;20125;-83
2022/03/13 06:27:00;;;;;;;20.80;10.70;;;;;;;;;;5040187;22;20109;-86
2022/03/13 06:30:04;;;;;;;;;;;;;;;;;;;;;
2022/03/13 06:32:31;;;;;;;20.27;10.43;;;;;;;;;;5016795;28;20082;-84
2022/03/13 06:35:03;;;;;;;23.63;11.77;;;;;;;;;;5017450;28;20068;-85
2022/03/13 06:41:12;;;;;;;25.13;12.27;;;;;;;;;;4935827;29;20032;-83
2022/03/13 06:43:39;;;;;;;23.67;11.63;;;;;;;;;;4993749;28;20128;-84
2022/03/13 06:46:05;;;;;;;19.65;10.48;;;;;;;;;;5018980;28;20089;-83
2022/03/13 06:48:31;;;;;;;20.60;11.00;;;;;;;;;;5006451;28;20030;-84
2022/03/13 06:50:58;;;;;;;20.77;9.95;;;;;;;;;;5016876;28;20669;-81
2022/03/13 06:53:24;;;;;;;23.27;11.50;;;;;;;;;;5016209;28;20017;-83
2022/03/13 06:55:52;;;;;;;22.13;10.60;;;;;;;;;;5019659;28;20018;-84
2022/03/13 06:58:18;;;;;;;25.20;11.07;;;;;;;;;;5019353;28;20029;-83
2022/03/13 07:00:45;;;;;;;23.60;10.82;;;;;;;;;;5018858;28;20022;-84
2022/03/13 07:03:13;;;;;;;22.42;11.20;;;;;;;;;;5019342;28;20080;-84
2022/03/13 07:05:41;;;;;;;22.45;11.05;;;;;;;;;;5019778;28;20091;-84
2022/03/13 07:08:07;;;;;;;21.75;11.75;;;;;;;;;;5004583;28;20010;-84
2022/03/13 07:10:33;;;;;;;20.63;10.95;;;;;;;;;;5035555;28;20042;-85
2022/03/13 07:13:02;;;;;;;22.95;10.25;;;;;;;;;;5018397;28;20014;-85
2022/03/13 07:15:30;;;;;;;20.40;10.75;;;;;;;;;;5018039;28;20014;-84
2022/03/13 07:17:56;;;;;;;23.73;10.77;;;;;;;;;;5012919;28;20139;-83
2022/03/13 07:20:22;;;;;;;22.45;11.00;;;;;;;;;;5014447;28;20109;-84
2022/03/13 07:22:48;;;;;;;18.67;9.32;;;;;;;;;;5017135;28;20018;-85
2022/03/13 07:25:14;;;;;;;21.70;10.63;;;;;;;;;;5035797;28;20041;-83
2022/03/13 07:27:46;;;;;;;19.85;10.05;;;;;;;;;;5035478;28;20029;-86
2022/03/13 07:30:13;;;;;;;18.05;10.05;;;;;;;;;;5017344;28;20049;-84
2022/03/13 07:33:16;;;;;;;20.85;10.93;;;;;;;;;;5017786;28;20049;-83
2022/03/13 07:35:44;;;;;;;22.98;11.07;;;;;;;;;;5000772;28;20034;-84
2022/03/13 07:38:10;;;;;;;22.13;11.48;;;;;;;;;;4998627;28;20029;-84
2022/03/13 07:40:36;;;;;;;23.10;11.82;;;;;;;;;;5015711;28;20121;-83
2022/03/13 07:43:02;;;;;;;21.13;10.70;;;;;;;;;;5019113;28;20038;-84
2022/03/13 07:45:28;;;;;;;24.33;11.23;;;;;;;;;;5020959;28;20053;-84
2022/03/13 07:47:59;;;;;;;21.60;11.02;;;;;;;;;;5021770;28;20060;-83
2022/03/13 07:50:25;;;;;;;;;;;;;;;;;;5005173;28;20026;-83
2022/03/13 07:52:51;;;;;;;19.73;10.40;;;;;;;;;;5006340;28;19947;-85
2022/03/13 07:55:17;;;;;;;18.92;10.85;;;;;;;;;;5023834;28;20025;-81
2022/03/13 07:57:44;;;;;;;19.00;10.18;;;;;;;;;;5020383;23;20053;-84
2022/03/13 08:00:41;;;;;;;18.05;10.13;;;;;;;;;;5003488;28;20040;-83
2022/03/13 08:03:35;;;;;;;22.25;11.07;;;;;;;;;;5022371;28;20113;-84
2022/03/13 08:06:09;;;;;;;22.67;11.23;;;;;;;;;;4959264;28;20034;-84
2022/03/13 08:08:35;;;;;;;24.40;12.57;;;;;;;;;;4965972;28;20034;-85
2022/03/13 08:11:01;;;;;;;21.33;10.65;;;;;;;;;;4995164;28;20403;-85
2022/03/13 08:13:27;;;;;;;22.63;12.13;;;;;;;;;;4983099;28;20030;-84
2022/03/13 08:15:53;;;;;;;18.33;11.43;;;;;;;;;;4982665;28;20023;-83
2022/03/13 08:18:19;;;;;;;21.17;10.30;;;;;;;;;;5002027;28;20053;-82
2022/03/13 08:20:45;;;;;;;20.92;10.45;;;;;;;;;;5004293;28;20471;-84
2022/03/13 08:23:11;;;;;;;21.63;11.00;;;;;;;;;;5011229;28;20045;-83
2022/03/13 08:25:37;;;;;;;24.77;11.63;;;;;;;;;;5017353;28;20034;-83
2022/03/13 08:28:03;;;;;;;23.17;11.60;;;;;;;;;;5017001;28;20029;-82
2022/03/13 08:30:29;;;;;;;22.08;11.07;;;;;;;;;;5016340;28;20030;-79
2022/03/13 08:32:55;;;;;;;23.75;12.00;;;;;;;;;;5017575;28;20064;-85
2022/03/13 08:35:21;;;;;;;25.33;11.30;;;;;;;;;;5016568;28;20035;-83
2022/03/13 08:37:47;;;;;;;21.45;11.70;;;;;;;;;;4999536;28;20031;-83
2022/03/13 08:40:13;;;;;;;20.42;10.88;;;;;;;;;;5000191;28;20094;-86
2022/03/13 08:42:40;;;;;;;20.70;11.57;;;;;;;;;;5016324;28;20027;-84
2022/03/13 08:45:08;;;;;;;23.42;11.77;;;;;;;;;;5019090;28;20034;-84
2022/03/13 08:48:13;;;;;;;25.10;10.93;;;;;;;;;;5019076;28;20025;-84
2022/03/13 08:50:39;;;;;;;22.27;9.98;;;;;;;;;;4979249;28;20087;-83
2022/03/13 08:53:05;;;;;;;18.25;10.73;;;;;;;;;;5008173;28;20035;-81
2022/03/13 08:55:31;;;;;;;22.35;11.05;;;;;;;;;;4997801;28;20014;-79
2022/03/13 08:57:57;;;;;;;23.52;12.55;;;;;;;;;;5014045;28;20038;-82
2022/03/13 09:00:24;;;;;;;38.90;11.65;;;;;;;;;;5019195;28;20109;-84
2022/03/13 09:02:52;;;;;;;23.40;11.20;;;;;;;;;;5018164;28;20022;-83
2022/03/13 09:05:19;;;;;;;23.42;11.88;;;;;;;;;;4996443;28;20328;-83
2022/03/13 09:07:45;;;;;;;16.73;11.05;;;;;;;;;;5017789;28;20045;-84
2022/03/13 09:10:11;;;;;;;26.83;12.27;;;;;;;;;;5009692;28;20030;-81
2022/03/13 09:12:38;;;;;;;21.92;11.05;;;;;;;;;;4983372;28;21590;-85
2022/03/13 09:15:05;;;;;;;23.20;11.05;;;;;;;;;;5018179;28;20052;-81
2022/03/13 09:17:31;;;;;;;21.23;10.73;;;;;;;;;;5025643;23;20037;-84
2022/03/13 09:19:59;;;;;;;20.70;12.07;;;;;;;;;;5018771;28;20232;-84
2022/03/13 09:22:32;;;;;;;18.23;11.85;;;;;;;;;;5018286;28;20021;-84
2022/03/13 09:25:01;;;;;;;19.85;11.57;;;;;;;;;;5013604;28;20041;-83
2022/03/13 09:28:31;;;;;;;19.42;11.75;;;;;;;;;;5018155;28;20030;-85
2022/03/13 09:34:07;;;;;;;22.50;12.60;;;;;;;;;;4983379;28;20269;-85
2022/03/13 09:40:59;;;;;;;20.27;12.65;;;;;;;;;;4981106;28;20045;-85
2022/03/13 09:43:08;;;;;;;22.30;13.27;;;;;;;;;;4985384;28;20053;-82
2022/03/13 09:49:11;;;;;;;21.95;13.55;;;;;;;;;;4998022;28;20073;-82
2022/03/13 09:51:39;;;;;;;20.40;12.20;;;;;;;;;;4979694;28;20081;-83
2022/03/13 09:54:39;;;;;;;23.95;12.38;;;;;;;;;;4997332;28;20022;-84
2022/03/13 09:57:28;;;;;;;22.30;13.15;;;;;;;;;;4980165;28;20250;-82
2022/03/13 10:00:11;;;;;;;20.70;11.57;;;;;;;;;;4977688;28;20037;-83
2022/03/13 10:02:38;;;;;;;21.13;12.02;;;;;;;;;;5027749;28;20032;-84
2022/03/13 10:05:35;;;;;;;24.83;13.55;;;;;;;;;;5013164;28;20144;-82
2022/03/13 10:08:02;;;;;;;25.17;12.95;;;;;;;;;;4996524;28;20038;-81
2022/03/13 10:10:33;;;;;;;25.02;12.60;;;;;;;;;;5016769;28;20025;-83
2022/03/13 10:13:00;;;;;;;22.75;12.93;;;;;;;;;;5015780;28;20049;-86
2022/03/13 10:15:26;;;;;;;22.60;13.30;;;;;;;;;;5017887;28;20497;-85
2022/03/13 10:17:52;;;;;;;27.00;13.57;;;;;;;;;;4999611;28;20030;-83
2022/03/13 10:20:19;;;;;;;20.50;12.77;;;;;;;;;;5015786;28;20066;-86
2022/03/13 10:22:45;;;;;;;19.52;12.27;;;;;;;;;;5018163;28;20160;-82
2022/03/13 10:25:13;;;;;;;20.88;12.70;;;;;;;;;;5017775;28;20026;-83
2022/03/13 10:27:39;;;;;;;24.92;12.90;;;;;;;;;;5017773;28;20022;-83
2022/03/13 10:30:09;;;;;;;22.95;13.35;;;;;;;;;;5017593;28;20576;-84
2022/03/13 10:32:38;;;;;;;20.63;12.65;;;;;;;;;;4999403;28;20030;-85
2022/03/13 10:35:05;;;;;;;19.65;13.13;;;;;;;;;;5017949;28;20360;-83
2022/03/13 10:37:39;;;;;;;26.15;13.75;;;;;;;;;;4999289;28;20025;-82
2022/03/13 10:40:18;;;;;;;22.15;12.77;;;;;;;;;;5000152;28;20032;-84
2022/03/13 10:42:44;;;;;;;19.80;12.35;;;;;;;;;;5000026;28;20393;-85
2022/03/13 10:45:31;;;;;;;23.45;14.10;;;;;;;;;;5018150;28;20018;-83
2022/03/13 10:48:16;;;;;;;22.85;13.73;;;;;;;;;;4999552;28;20084;-83
2022/03/13 10:50:47;;;;;;;22.17;12.57;;;;;;;;;;5017028;28;20026;-83
2022/03/13 10:53:13;;;;;;;22.67;13.05;;;;;;;;;;5017660;28;20025;-81
2022/03/13 10:55:41;;;;;;;32.85;13.38;;;;;;;;;;5017530;28;20030;-83
2022/03/13 10:58:07;;;;;;;25.35;13.32;;;;;;;;;;5016971;28;20032;-83
2022/03/13 11:00:34;;;;;;;22.23;14.45;;;;;;;;;;5016943;28;20049;-83
2022/03/13 11:03:17;;;;;;;24.95;13.07;;;;;;;;;;5017681;28;20025;-84
2022/03/13 11:05:43;;;;;;;25.17;14.35;;;;;;;;;;5017801;28;20033;-85
2022/03/13 11:08:09;;;;;;;24.40;13.27;;;;;;;;;;4999540;28;20410;-84
2022/03/13 11:10:38;;;;;;;24.75;12.57;;;;;;;;;;5016703;28;20072;-84
2022/03/13 11:13:05;;;;;;;23.52;12.68;;;;;;;;;;5016513;28;20022;-84
2022/03/13 11:15:31;;;;;;;22.23;13.13;;;;;;;;;;4998743;28;20041;-86
2022/03/13 11:17:59;;;;;;;24.02;13.43;;;;;;;;;;5020356;28;20046;-85
2022/03/13 11:20:25;;;;;;;22.63;12.45;;;;;;;;;;5020668;28;20018;-83
2022/03/13 11:22:52;;;;;;;26.42;13.95;;;;;;;;;;5021511;28;20477;-83
2022/03/13 11:25:18;;;;;;;20.08;13.00;;;;;;;;;;5021304;28;20324;-84
2022/03/13 11:27:45;;;;;;;21.73;12.52;;;;;;;;;;5021174;28;20221;-83
2022/03/13 11:30:14;;;;;;;19.67;12.40;;;;;;;;;;5020718;28;20022;-84
2022/03/13 11:32:46;;;;;;;22.67;12.52;;;;;;;;;;5021627;28;20152;-85
2022/03/13 11:35:18;;;;;;;18.60;11.77;;;;;;;;;;5003783;28;20026;-84
2022/03/13 11:37:47;;;;;;;16.50;11.00;;;;;;;;;;5022168;28;20046;-85
2022/03/13 11:40:14;;;;;;;20.88;13.18;;;;;;;;;;5003047;28;20026;-83
2022/03/13 11:42:50;;;;;;;22.90;12.65;;;;;;;;;;5003496;28;20026;-83
2022/03/13 11:45:34;;;;;;;20.67;13.23;;;;;;;;;;5021144;28;20029;-83
2022/03/13 11:48:13;;;;;;;19.88;12.18;;;;;;;;;;5020950;28;20506;-84
2022/03/13 11:50:58;;;;;;;21.83;11.90;;;;;;;;;;5004827;28;20054;-85
2022/03/13 11:53:28;;;;;;;25.25;12.68;;;;;;;;;;5003094;28;20079;-86
2022/03/13 11:56:00;;;;;;;18.95;11.27;;;;;;;;;;5003920;28;20022;-84
2022/03/13 11:58:35;;;;;;;19.75;12.23;;;;;;;;;;5002913;28;20053;-84
2022/03/13 12:01:15;;;;;;;19.52;11.90;;;;;;;;;;5020582;28;20068;-83
2022/03/13 12:03:59;;;;;;;24.58;13.18;;;;;;;;;;5021480;28;20022;-84
2022/03/13 12:06:48;;;;;;;22.27;12.18;;;;;;;;;;5002633;28;20037;-84
2022/03/13 12:09:15;;;;;;;23.33;11.45;;;;;;;;;;5002515;28;20441;-85
2022/03/13 12:11:43;;;;;;;21.58;12.13;;;;;;;;;;5020054;28;20033;-84
2022/03/13 12:14:10;;;;;;;23.83;11.80;;;;;;;;;;5020931;28;20083;-84
2022/03/13 12:16:37;;;;;;;21.08;12.38;;;;;;;;;;5002188;28;20087;-83
2022/03/13 12:19:03;;;;;;;25.42;12.30;;;;;;;;;;5019321;28;20025;-83
2022/03/13 12:21:30;;;;;;;21.52;11.15;;;;;;;;;;5000836;28;20406;-83
2022/03/13 12:23:59;;;;;;;21.10;11.35;;;;;;;;;;5019690;28;20125;-80
2022/03/13 12:26:30;;;;;;;21.02;11.40;;;;;;;;;;5019212;28;20026;-83
2022/03/13 12:28:57;;;;;;;21.02;11.88;;;;;;;;;;5001831;28;20037;-84
2022/03/13 12:31:23;;;;;;;19.85;11.23;;;;;;;;;;5001686;28;20489;-84
2022/03/13 12:33:51;;;;;;;21.02;11.43;;;;;;;;;;5001672;28;20044;-84
2022/03/13 12:36:18;;;;;;;20.67;11.30;;;;;;;;;;5001216;28;20108;-83
2022/03/13 12:38:46;;;;;;;18.98;10.55;;;;;;;;;;5019464;28;20061;-83
2022/03/13 12:41:12;;;;;;;16.42;10.60;;;;;;;;;;5018601;28;20409;-85
2022/03/13 12:43:52;;;;;;;20.90;11.00;;;;;;;;;;5001211;28;20057;-83
2022/03/13 12:46:18;;;;;;;17.20;9.90;;;;;;;;;;5019296;28;20028;-84
2022/03/13 12:49:17;;;;;;;23.15;11.23;;;;;;;;;;5019526;28;20026;-84
2022/03/13 12:51:47;;;;;;;18.45;10.82;;;;;;;;;;4965324;28;20405;-83
2022/03/13 12:54:16;;;;;;;19.05;11.00;;;;;;;;;;5000969;28;20026;-85
2022/03/13 12:56:44;;;;;;;20.92;10.38;;;;;;;;;;5000345;28;20037;-81
2022/03/13 12:59:22;;;;;;;19.48;10.02;;;;;;;;;;5018545;28;20026;-85
2022/03/13 13:02:01;;;;;;;16.45;9.70;;;;;;;;;;5001548;28;20129;-85
2022/03/13 13:04:27;;;;;;;17.65;10.77;;;;;;;;;;5019471;28;20030;-83
2022/03/13 13:06:52;;;;;;;20.92;10.77;;;;;;;;;;5001805;28;20068;-84
2022/03/13 13:09:29;;;;;;;18.90;10.73;;;;;;;;;;5020002;28;20021;-83
2022/03/13 13:11:55;;;;;;;17.50;10.68;;;;;;;;;;5002249;28;20057;-83
2022/03/13 13:14:28;;;;;;;18.42;10.15;;;;;;;;;;5020108;28;20056;-84
2022/03/13 13:16:56;;;;;;;20.17;10.68;;;;;;;;;;5002034;28;20097;-84
2022/03/13 13:19:22;;;;;;;18.42;11.07;;;;;;;;;;5001376;28;20026;-83
2022/03/13 13:21:58;;;;;;;18.67;9.82;;;;;;;;;;5000804;28;20026;-82
2022/03/13 13:24:35;;;;;;;19.23;10.95;;;;;;;;;;5020285;28;20026;-84
2022/03/13 13:27:10;;;;;;;19.83;9.85;;;;;;;;;;5001779;28;20022;-83
2022/03/13 13:29:37;;;;;;;17.83;10.43;;;;;;;;;;5002633;28;20176;-83
2022/03/13 13:32:22;;;;;;;16.83;9.38;;;;;;;;;;5019125;28;20030;-84
2022/03/13 13:35:04;;;;;;;16.73;9.73;;;;;;;;;;5001979;28;20052;-85
2022/03/13 13:37:31;;;;;;;21.98;9.93;;;;;;;;;;5019700;28;20489;-84
2022/03/13 13:40:12;;;;;;;18.15;9.90;;;;;;;;;;5018602;28;20437;-85
2022/03/13 13:42:39;;;;;;;;;;;;;;;;;;5020222;28;20565;-84
2022/03/13 13:45:26;;;;;;;17.50;9.02;;;;;;;;;;5018716;28;19912;-85
2022/03/13 13:47:52;;;;;;;16.95;9.70;;;;;;;;;;5006989;28;20034;-85
2022/03/13 13:50:22;;;;;;;14.10;8.65;;;;;;;;;;5019612;28;20033;-84
2022/03/13 13:53:02;;;;;;;15.52;9.40;;;;;;;;;;5019232;28;20034;-85
2022/03/13 13:55:28;;;;;;;14.95;9.93;;;;;;;;;;5019435;28;20029;-86
2022/03/13 13:58:13;;;;;;;17.85;9.63;;;;;;;;;;5018946;28;20061;-85
2022/03/13 14:00:39;;;;;;;19.45;10.45;;;;;;;;;;5000673;28;20034;-84
2022/03/13 14:03:05;;;;;;;16.52;10.65;;;;;;;;;;5001351;28;20048;-83
2022/03/13 14:05:34;;;;;;;17.60;10.05;;;;;;;;;;5008224;28;20026;-84
2022/03/13 14:08:00;;;;;;;16.30;9.60;;;;;;;;;;5025890;28;20029;-85
2022/03/13 14:10:26;;;;;;;18.92;10.63;;;;;;;;;;5019097;28;20033;-84
2022/03/13 14:12:52;;;;;;;19.88;9.27;;;;;;;;;;5000153;28;20117;-84
2022/03/13 14:15:20;;;;;;;14.50;8.30;;;;;;;;;;5017275;28;20400;-84
2022/03/13 14:17:46;;;;;;;19.08;10.95;;;;;;;;;;4999608;28;20030;-85
2022/03/13 14:20:13;;;;;;;18.17;9.85;;;;;;;;;;4999018;28;20026;-86
2022/03/13 14:22:41;;;;;;;20.27;10.77;;;;;;;;;;5018836;28;20132;-85
2022/03/13 14:25:07;;;;;;;17.38;9.77;;;;;;;;;;5018701;28;20022;-83
2022/03/13 14:27:33;;;;;;;19.08;10.02;;;;;;;;;;5017872;28;20026;-86
2022/03/13 14:29:59;;;;;;;19.70;10.38;;;;;;;;;;5000715;28;20081;-83
2022/03/13 14:32:25;;;;;;;17.50;10.18;;;;;;;;;;5018217;28;20033;-84
2022/03/13 14:34:51;;;;;;;17.10;10.35;;;;;;;;;;5018645;28;20092;-86
2022/03/13 14:37:17;;;;;;;19.73;10.10;;;;;;;;;;5018537;28;20490;-85
2022/03/13 14:39:43;;;;;;;17.90;10.05;;;;;;;;;;5017885;28;20033;-86
2022/03/13 14:42:12;;;;;;;19.00;11.23;;;;;;;;;;5017340;28;20405;-83
2022/03/13 14:44:38;;;;;;;15.48;9.20;;;;;;;;;;4999722;28;20029;-86
2022/03/13 14:47:05;;;;;;;16.42;10.50;;;;;;;;;;5017202;28;20046;-82